Time;durP1;ratioP1;P1;durP2;ratioP2;P2;SDS_P1;SDS_P2;PMS_P1;PMS_P2;Temp;Humidity;BMP_temperature;BMP_pressure;BME280_temperature;BME280_humidity;BME280_pressure;Samples;Min_cycle;Max_cycle;Signal;HPM_P1;HPM_P2
2022/11/13 00:00:11;;;;;;;6.05;3.45;;;15.00;75.90;;;;;;10429949;28;20141;-61
2022/11/13 00:05:12;;;;;;;3.85;3.10;;;15.00;75.80;;;;;;10429777;28;20029;-61
2022/11/13 00:10:13;;;;;;;4.57;3.50;;;15.00;75.80;;;;;;10446993;28;20124;-61
2022/11/13 00:15:13;;;;;;;4.93;3.90;;;15.00;75.80;;;;;;10447564;28;20115;-61
2022/11/13 00:20:14;;;;;;;4.68;3.47;;;14.90;75.60;;;;;;10446829;28;20040;-61
2022/11/13 00:25:15;;;;;;;5.45;4.60;;;14.90;75.60;;;;;;10446336;28;20151;-61
2022/11/13 00:30:15;;;;;;;4.72;3.38;;;14.90;75.60;;;;;;10447881;28;20026;-61
2022/11/13 00:35:16;;;;;;;4.18;3.58;;;14.90;75.70;;;;;;10428976;28;20049;-61
2022/11/13 00:40:17;;;;;;;4.25;3.42;;;14.90;75.60;;;;;;10479124;28;20151;-61
2022/11/13 00:45:17;;;;;;;4.63;3.45;;;14.90;75.60;;;;;;10445687;28;20084;-60
2022/11/13 00:50:19;;;;;;;7.15;4.05;;;14.90;75.60;;;;;;10445556;28;20056;-61
2022/11/13 00:55:20;;;;;;;5.18;3.97;;;14.90;75.50;;;;;;10446739;28;20143;-61
2022/11/13 01:00:21;;;;;;;6.88;4.60;;;14.80;75.50;;;;;;10446741;28;20115;-60
2022/11/13 01:05:21;;;;;;;5.72;3.72;;;14.90;75.40;;;;;;10445135;28;20028;-61
2022/11/13 01:10:24;;;;;;;3.90;3.10;;;14.80;75.40;;;;;;10445513;28;20918;-61
2022/11/13 01:15:25;;;;;;;5.13;3.72;;;14.90;75.40;;;;;;10445335;28;20017;-61
2022/11/13 01:20:25;;;;;;;4.20;3.75;;;14.80;75.30;;;;;;10445312;28;20032;-61
2022/11/13 01:25:27;;;;;;;4.47;3.45;;;14.80;75.30;;;;;;10444436;28;20541;-61
2022/11/13 01:30:28;;;;;;;5.07;3.55;;;14.80;75.30;;;;;;10444683;28;20029;-61
2022/11/13 01:35:28;;;;;;;4.32;3.53;;;14.80;75.20;;;;;;10444375;28;20041;-61
2022/11/13 01:40:29;;;;;;;4.28;3.35;;;14.80;75.10;;;;;;10444471;28;20033;-60
2022/11/13 01:46:23;;;;;;;5.30;3.83;;;14.80;75.10;;;;;;10427939;28;20116;-59
2022/11/13 01:51:44;;;;;;;4.18;2.97;;;14.80;75.10;;;;;;10442398;28;20040;-61
2022/11/13 01:56:44;;;;;;;4.55;3.70;;;14.80;75.10;;;;;;10444407;28;20029;-61
2022/11/13 02:01:45;;;;;;;5.10;3.75;;;14.80;75.10;;;;;;10444159;28;20540;-60
2022/11/13 02:07:06;;;;;;;5.80;3.78;;;14.80;75.60;;;;;;10427394;28;20092;-61
2022/11/13 02:12:12;;;;;;;4.85;3.67;;;14.70;74.90;;;;;;10437825;28;20025;-61
2022/11/13 02:17:51;;;;;;;7.90;3.72;;;14.70;74.90;;;;;;10443678;28;20029;-61
2022/11/13 02:23:15;;;;;;;5.95;3.85;;;14.70;74.90;;;;;;10459658;28;20405;-61
2022/11/13 02:28:16;;;;;;;5.40;3.78;;;14.70;74.90;;;;;;10452468;28;20033;-61
2022/11/13 02:33:27;;;;;;;3.92;3.10;;;14.70;74.90;;;;;;10451357;28;20064;-61
2022/11/13 02:38:28;;;;;;;4.95;3.38;;;14.70;74.90;;;;;;10452000;28;20555;-61
2022/11/13 02:43:29;;;;;;;19.27;3.70;;;14.70;74.90;;;;;;10450809;28;20092;-60
2022/11/13 02:48:30;;;;;;;4.25;2.60;;;14.70;74.90;;;;;;10450486;28;20111;-61
2022/11/13 02:53:30;;;;;;;4.70;3.53;;;14.70;74.80;;;;;;10450255;28;20059;-61
2022/11/13 02:58:31;;;;;;;5.07;3.30;;;14.70;74.70;;;;;;10443624;28;20025;-59
2022/11/13 03:03:32;;;;;;;4.88;3.45;;;14.70;74.70;;;;;;10449910;28;20024;-60
2022/11/13 03:08:33;;;;;;;5.32;3.38;;;14.60;74.70;;;;;;10449982;28;20021;-60
2022/11/13 03:13:33;;;;;;;4.78;3.28;;;14.60;74.60;;;;;;10449131;28;20021;-60
2022/11/13 03:18:34;;;;;;;6.00;3.70;;;14.60;74.50;;;;;;10449187;28;20033;-61
2022/11/13 03:23:35;;;;;;;5.40;3.22;;;14.70;74.60;;;;;;10449895;28;20028;-61
2022/11/13 03:28:36;;;;;;;4.80;3.20;;;14.70;74.60;;;;;;10448459;28;20029;-60
2022/11/13 03:33:37;;;;;;;4.00;3.22;;;14.60;74.40;;;;;;10448609;28;20044;-61
2022/11/13 03:38:38;;;;;;;4.57;3.78;;;14.60;74.40;;;;;;10447854;28;20036;-60
2022/11/13 03:43:40;;;;;;;4.35;2.70;;;14.60;74.30;;;;;;10447796;28;20092;-60
2022/11/13 03:48:41;;;;;;;4.03;3.38;;;14.60;74.30;;;;;;10448265;28;20017;-61
2022/11/13 03:53:41;;;;;;;4.25;3.13;;;14.60;74.30;;;;;;10447667;28;20411;-61
2022/11/13 03:58:42;;;;;;;3.20;2.42;;;14.60;74.30;;;;;;10448186;28;20119;-60
2022/11/13 04:03:43;;;;;;;4.90;2.60;;;14.60;74.30;;;;;;10447919;28;20071;-61
2022/11/13 04:08:43;;;;;;;4.25;3.45;;;14.60;74.30;;;;;;10447638;28;20512;-60
2022/11/13 04:13:44;;;;;;;5.13;3.53;;;14.60;74.30;;;;;;10425206;28;20112;-60
2022/11/13 04:18:45;;;;;;;5.45;3.10;;;14.60;74.20;;;;;;10448695;28;20116;-61
2022/11/13 04:23:46;;;;;;;5.03;3.45;;;14.60;74.20;;;;;;10430410;28;20141;-60
2022/11/13 04:28:46;;;;;;;3.83;2.97;;;14.50;74.10;;;;;;10447250;28;20043;-61
2022/11/13 04:33:47;;;;;;;5.35;3.00;;;14.60;74.20;;;;;;10447461;28;20135;-60
2022/11/13 04:38:48;;;;;;;3.55;3.05;;;14.50;74.10;;;;;;10446119;28;20069;-61
2022/11/13 04:43:48;;;;;;;5.35;3.38;;;14.50;74.20;;;;;;10446041;28;20031;-61
2022/11/13 04:48:49;;;;;;;4.05;2.83;;;14.50;74.10;;;;;;10446151;28;20462;-61
2022/11/13 04:53:50;;;;;;;5.45;3.92;;;14.50;74.10;;;;;;10446737;28;20064;-61
2022/11/13 04:58:50;;;;;;;4.22;2.80;;;14.50;74.10;;;;;;10445746;28;20053;-61
2022/11/13 05:03:51;;;;;;;4.57;2.97;;;14.50;74.00;;;;;;10428720;28;20020;-61
2022/11/13 05:08:51;;;;;;;3.83;2.95;;;14.50;74.00;;;;;;10445661;28;20128;-60
2022/11/13 05:13:52;;;;;;;4.03;2.60;;;14.50;74.00;;;;;;10445409;28;20100;-60
2022/11/13 05:18:53;;;;;;;3.95;3.08;;;14.50;74.00;;;;;;10428151;28;20060;-61
2022/11/13 05:23:53;;;;;;;9.80;4.03;;;14.50;74.00;;;;;;10443326;28;20367;-61
2022/11/13 05:29:00;;;;;;;9.70;3.13;;;14.50;73.80;;;;;;10443862;28;20539;-61
2022/11/13 05:34:04;;;;;;;8.82;3.53;;;14.60;74.00;;;;;;10445626;28;20459;-60
2022/11/13 05:39:05;;;;;;;5.22;3.13;;;14.60;74.00;;;;;;10428002;28;20021;-61
2022/11/13 05:44:06;;;;;;;4.57;3.17;;;14.70;73.90;;;;;;10445813;28;20633;-60
2022/11/13 05:49:09;;;;;;;4.57;3.03;;;14.60;73.90;;;;;;10444252;28;20108;-60
2022/11/13 05:54:10;;;;;;;6.97;3.25;;;14.60;74.10;;;;;;10444302;28;20033;-61
2022/11/13 05:59:11;;;;;;;6.25;3.10;;;14.50;74.00;;;;;;10446288;28;20029;-61
2022/11/13 06:04:11;;;;;;;4.78;3.10;;;14.50;73.60;;;;;;10451026;28;20021;-61
2022/11/13 06:09:16;;;;;;;5.53;2.92;;;14.50;73.30;;;;;;10451644;28;20112;-60
2022/11/13 06:14:16;;;;;;;4.82;3.05;;;14.60;73.50;;;;;;10451335;28;20139;-60
2022/11/13 06:19:17;;;;;;;6.60;2.60;;;14.70;73.60;;;;;;10451364;28;20464;-61
2022/11/13 06:24:18;;;;;;;6.93;3.38;;;14.60;74.40;;;;;;10433874;28;20017;-65
2022/11/13 06:29:18;;;;;;;8.20;3.60;;;14.70;74.10;;;;;;10454524;28;20480;-61
2022/11/13 06:34:19;;;;;;;7.05;3.30;;;14.60;74.40;;;;;;10466453;28;20045;-64
2022/11/13 06:39:20;;;;;;;14.02;3.30;;;14.70;73.90;;;;;;10452062;28;20032;-60
2022/11/13 06:44:21;;;;;;;15.27;3.85;;;14.80;75.00;;;;;;10449030;28;20025;-60
2022/11/13 06:49:21;;;;;;;12.02;4.15;;;14.90;75.00;;;;;;10447590;28;20569;-60
2022/11/13 06:54:22;;;;;;;14.32;4.32;;;14.90;75.00;;;;;;10448903;28;20236;-60
2022/11/13 06:59:22;;;;;;;12.38;3.53;;;14.80;75.70;;;;;;10433338;28;20116;-60
2022/11/13 07:04:23;;;;;;;12.55;4.47;;;14.80;74.80;;;;;;10449867;28;20092;-61
2022/11/13 07:09:24;;;;;;;22.85;5.03;;;14.70;74.90;;;;;;10450299;28;20017;-60
2022/11/13 07:14:24;;;;;;;22.08;6.88;;;14.80;74.90;;;;;;10449361;28;20064;-60
2022/11/13 07:19:25;;;;;;;23.52;5.85;;;14.70;75.40;;;;;;10432730;28;20114;-59
2022/11/13 07:24:26;;;;;;;20.33;5.45;;;14.70;74.50;;;;;;10449119;28;20605;-59
2022/11/13 07:29:26;;;;;;;16.70;4.90;;;14.70;75.10;;;;;;10447813;28;20108;-60
2022/11/13 07:34:27;;;;;;;23.92;5.63;;;14.60;75.10;;;;;;10443588;28;20080;-60
2022/11/13 07:39:27;;;;;;;30.48;5.82;;;14.60;75.30;;;;;;10447172;28;20040;-61
2022/11/13 07:44:28;;;;;;;10.75;4.03;;;14.60;75.20;;;;;;10446655;28;20068;-60
2022/11/13 07:49:29;;;;;;;10.30;3.58;;;14.60;74.80;;;;;;10446106;28;20725;-60
2022/11/13 07:54:29;;;;;;;6.95;3.42;;;14.50;74.90;;;;;;10447120;28;20109;-60
2022/11/13 07:59:30;;;;;;;7.43;4.25;;;14.50;74.80;;;;;;10447239;28;20135;-60
2022/11/13 08:04:31;;;;;;;21.02;4.03;;;14.50;74.80;;;;;;10447831;28;20059;-61
2022/11/13 08:09:32;;;;;;;7.13;3.63;;;14.50;74.60;;;;;;10447239;28;20098;-61
2022/11/13 08:14:33;;;;;;;11.48;4.72;;;14.50;74.60;;;;;;10447610;28;20029;-60
2022/11/13 08:19:34;;;;;;;7.50;3.83;;;14.50;74.40;;;;;;10446513;28;20033;-60
2022/11/13 08:24:34;;;;;;;9.45;4.15;;;14.50;74.40;;;;;;10447744;28;20101;-60
2022/11/13 08:29:36;;;;;;;9.75;3.47;;;14.50;74.50;;;;;;10447905;28;20531;-61
2022/11/13 08:34:36;;;;;;;11.73;3.33;;;14.50;74.40;;;;;;10445563;28;20057;-60
2022/11/13 08:39:37;;;;;;;11.90;3.33;;;14.50;74.10;;;;;;10441209;28;20025;-62
2022/11/13 08:44:38;;;;;;;10.50;3.67;;;14.50;74.30;;;;;;10435529;28;20053;-61
2022/11/13 08:49:38;;;;;;;18.33;4.38;;;14.60;74.30;;;;;;10439115;28;20020;-62
2022/11/13 08:54:40;;;;;;;31.95;5.03;;;14.70;74.80;;;;;;10445407;28;20122;-61
2022/11/13 08:59:40;;;;;;;27.15;5.55;;;14.70;74.80;;;;;;10444769;28;20029;-64
2022/11/13 09:04:42;;;;;;;27.80;5.18;;;14.80;74.60;;;;;;10446097;28;20096;-64
2022/11/13 09:09:42;;;;;;;19.52;4.80;;;14.80;74.90;;;;;;10444720;28;20032;-65
2022/11/13 09:14:43;;;;;;;23.67;5.40;;;14.80;75.00;;;;;;10437151;28;20491;-66
2022/11/13 09:19:44;;;;;;;29.95;6.97;;;14.90;75.00;;;;;;10439832;28;20140;-64
2022/11/13 09:24:44;;;;;;;31.15;6.15;;;14.90;75.30;;;;;;10427680;28;20167;-68
2022/11/13 09:29:45;;;;;;;25.92;7.18;;;15.00;75.10;;;;;;10444323;28;20037;-65
2022/11/13 09:34:46;;;;;;;32.65;7.30;;;15.00;75.50;;;;;;10449073;28;20080;-68
2022/11/13 09:39:46;;;;;;;23.90;6.03;;;15.00;75.40;;;;;;10452472;28;20120;-68
2022/11/13 09:44:56;;;;;;;32.20;7.72;;;15.10;75.40;;;;;;10432967;28;20092;-66
2022/11/13 09:50:15;;;;;;;21.63;5.28;;;15.10;75.30;;;;;;10452592;28;20078;-67
2022/11/13 09:55:19;;;;;;;20.73;5.93;;;15.20;75.30;;;;;;10452050;28;20079;-67
2022/11/13 10:00:21;;;;;;;24.17;6.13;;;15.20;75.50;;;;;;10453245;28;20403;-66
2022/11/13 10:06:08;;;;;;;22.17;4.95;;;15.20;75.40;;;;;;10485347;28;20100;-68
2022/11/13 10:11:40;;;;;;;39.50;6.78;;;15.30;75.20;;;;;;10435178;28;20036;-68
2022/11/13 10:17:14;;;;;;;29.40;5.93;;;15.30;75.20;;;;;;10451703;28;20060;-68
2022/11/13 10:22:25;;;;;;;21.08;4.82;;;15.30;75.90;;;;;;10449558;28;20116;-67
2022/11/13 10:27:25;;;;;;;21.70;4.68;;;15.30;75.70;;;;;;10449325;28;20782;-69
2022/11/13 10:32:31;;;;;;;18.10;5.22;;;15.40;75.80;;;;;;10450543;28;20108;-68
2022/11/13 10:38:09;;;;;;;18.13;6.40;;;15.40;75.70;;;;;;10450604;28;20675;-64
2022/11/13 10:43:23;;;;;;;25.58;6.05;;;15.50;75.80;;;;;;10451594;28;20082;-69
2022/11/13 10:48:31;;;;;;;23.45;6.28;;;15.50;75.40;;;;;;10450404;28;20025;-65
2022/11/13 10:53:40;;;;;;;24.17;5.63;;;15.60;75.30;;;;;;10450646;28;20535;-62
2022/11/13 10:58:41;;;;;;;19.83;6.37;;;15.70;75.20;;;;;;10446525;28;20032;-63
2022/11/13 11:03:49;;;;;;;17.83;5.43;;;15.70;76.00;;;;;;10466563;28;20108;-61
2022/11/13 11:08:49;;;;;;;20.67;6.38;;;15.80;75.50;;;;;;10449564;28;20152;-63
2022/11/13 11:13:50;;;;;;;19.05;4.95;;;15.80;75.70;;;;;;10449751;28;20019;-64
2022/11/13 11:18:59;;;;;;;21.08;5.00;;;15.90;75.50;;;;;;10432852;28;20027;-63
2022/11/13 11:24:19;;;;;;;27.43;5.63;;;15.90;75.70;;;;;;10447835;28;20465;-67
2022/11/13 11:29:36;;;;;;;29.30;6.15;;;16.00;75.90;;;;;;10448497;28;20074;-67
2022/11/13 11:34:46;;;;;;;25.60;6.18;;;16.00;76.40;;;;;;10447020;28;20048;-65
2022/11/13 11:39:56;;;;;;;28.33;6.90;;;16.00;76.60;;;;;;10446583;28;20091;-63
2022/11/13 11:45:21;;;;;;;34.70;7.30;;;16.00;76.80;;;;;;10432008;28;20092;-65
2022/11/13 11:50:45;;;;;;;32.03;6.70;;;16.00;76.70;;;;;;10449194;28;20029;-66
2022/11/13 11:56:16;;;;;;;26.30;6.75;;;16.00;76.60;;;;;;10448849;28;20017;-67
2022/11/13 12:01:33;;;;;;;41.72;9.23;;;16.10;76.90;;;;;;10446155;28;20028;-62
2022/11/13 12:07:15;;;;;;;32.35;7.65;;;16.10;76.80;;;;;;10446825;28;20025;-68
2022/11/13 12:13:00;;;;;;;30.88;8.55;;;16.10;76.20;;;;;;10447114;28;20053;-69
2022/11/13 12:18:35;;;;;;;26.10;8.77;;;16.10;76.30;;;;;;10445864;28;20040;-69
2022/11/13 12:24:00;;;;;;;23.55;7.93;;;16.10;76.20;;;;;;10444880;28;20068;-68
2022/11/13 12:29:53;;;;;;;26.83;6.50;;;16.20;76.20;;;;;;10457822;28;20029;-68
2022/11/13 12:35:15;;;;;;;27.95;6.22;;;16.10;76.20;;;;;;10426196;28;20472;-68
2022/11/13 12:40:38;;;;;;;20.17;5.38;;;16.20;76.20;;;;;;10445360;28;20040;-67
2022/11/13 12:45:53;;;;;;;19.77;5.47;;;16.20;76.00;;;;;;10444661;28;20020;-67
2022/11/13 12:51:15;;;;;;;17.15;6.45;;;16.20;76.00;;;;;;10446825;28;20476;-69
2022/11/13 12:56:26;;;;;;;11.73;6.07;;;16.10;76.00;;;;;;10445698;28;20021;-68
2022/11/13 13:01:35;;;;;;;15.23;4.85;;;16.10;76.20;;;;;;10446841;28;20029;-68
2022/11/13 13:07:28;;;;;;;23.83;6.32;;;16.00;76.20;;;;;;10445909;28;20075;-68
2022/11/13 13:12:56;;;;;;;12.60;4.88;;;16.00;76.40;;;;;;10460616;28;20126;-67
2022/11/13 13:18:15;;;;;;;12.80;5.07;;;15.90;76.30;;;;;;10444814;28;20044;-68
2022/11/13 13:23:30;;;;;;;11.77;4.65;;;15.80;76.40;;;;;;10439123;28;20100;-68
2022/11/13 13:28:32;;;;;;;15.77;6.05;;;15.80;76.50;;;;;;10445038;28;20029;-68
2022/11/13 13:34:21;;;;;;;14.30;4.57;;;15.70;76.50;;;;;;10444815;28;20124;-68
2022/11/13 13:39:24;;;;;;;10.70;4.13;;;15.70;76.60;;;;;;10444937;28;20025;-68
2022/11/13 13:45:04;;;;;;;9.18;3.67;;;15.70;76.60;;;;;;10445843;28;20475;-66
2022/11/13 13:50:11;;;;;;;11.63;4.95;;;15.60;76.70;;;;;;10445618;28;20025;-65
2022/11/13 13:55:27;;;;;;;13.60;5.15;;;15.60;76.40;;;;;;10445557;28;20032;-63
2022/11/13 14:00:28;;;;;;;15.52;5.05;;;15.60;75.10;;;;;;10428259;28;20453;-64
2022/11/13 14:05:32;;;;;;;20.67;4.38;;;15.60;74.20;;;;;;10443861;28;20130;-65
2022/11/13 14:10:35;;;;;;;10.68;4.18;;;15.70;73.30;;;;;;10427931;28;20499;-65
2022/11/13 14:15:36;;;;;;;8.93;4.00;;;15.60;73.10;;;;;;10427272;28;20021;-65
2022/11/13 14:20:48;;;;;;;6.95;3.28;;;15.60;73.90;;;;;;10429004;28;20102;-66
2022/11/13 14:25:50;;;;;;;8.85;3.60;;;15.60;74.80;;;;;;10451911;28;20017;-64
2022/11/13 14:31:06;;;;;;;10.30;3.75;;;15.60;73.30;;;;;;10434440;28;20025;-64
2022/11/13 14:36:07;;;;;;;8.18;4.15;;;15.60;72.60;;;;;;10442622;28;20381;-64
2022/11/13 14:41:30;;;;;;;8.07;3.33;;;15.60;72.20;;;;;;10432200;28;20029;-65
2022/11/13 14:46:37;;;;;;;9.18;3.92;;;15.60;72.30;;;;;;10450456;28;20025;-65
2022/11/13 14:51:39;;;;;;;15.85;4.18;;;15.50;73.90;;;;;;10451868;28;20116;-64
2022/11/13 14:56:41;;;;;;;8.85;3.80;;;15.50;72.80;;;;;;10433750;28;20369;-65
2022/11/13 15:01:54;;;;;;;7.78;3.45;;;15.50;72.00;;;;;;10449847;28;20028;-66
2022/11/13 15:06:59;;;;;;;5.00;2.55;;;15.60;71.50;;;;;;10449764;28;20525;-66
2022/11/13 15:12:00;;;;;;;7.05;2.63;;;15.50;71.00;;;;;;10443706;28;20395;-66
2022/11/13 15:17:01;;;;;;;8.85;3.72;;;15.40;72.90;;;;;;10449496;28;20103;-66
2022/11/13 15:22:02;;;;;;;7.10;3.15;;;15.50;72.50;;;;;;10432504;28;20120;-66
2022/11/13 15:27:03;;;;;;;12.90;4.55;;;15.50;71.40;;;;;;10448564;28;20021;-62
2022/11/13 15:32:04;;;;;;;17.08;3.85;;;15.50;71.60;;;;;;10449167;28;20115;-65
2022/11/13 15:37:13;;;;;;;24.98;6.03;;;15.50;73.30;;;;;;10431478;28;20087;-64
2022/11/13 15:42:17;;;;;;;32.33;6.03;;;15.40;72.90;;;;;;10445112;28;20096;-63
2022/11/13 15:47:35;;;;;;;24.85;5.35;;;15.40;73.40;;;;;;10434660;28;20045;-64
2022/11/13 15:52:40;;;;;;;17.45;4.45;;;15.40;73.60;;;;;;10451770;28;20025;-63
2022/11/13 15:57:41;;;;;;;28.90;5.47;;;15.40;73.60;;;;;;10451055;28;20048;-63
2022/11/13 16:02:42;;;;;;;19.33;5.05;;;15.30;74.00;;;;;;10434175;28;20017;-63
2022/11/13 16:07:42;;;;;;;21.63;4.88;;;15.40;73.90;;;;;;10449001;28;20593;-63
2022/11/13 16:12:44;;;;;;;16.73;5.47;;;15.40;74.00;;;;;;10448376;28;20021;-62
2022/11/13 16:17:53;;;;;;;34.75;7.05;;;15.30;74.10;;;;;;10445384;28;20066;-63
2022/11/13 16:22:53;;;;;;;16.27;4.70;;;15.30;74.40;;;;;;10442771;28;20032;-62
2022/11/13 16:27:54;;;;;;;19.10;4.45;;;15.30;74.50;;;;;;10445544;28;20071;-62
2022/11/13 16:32:55;;;;;;;19.85;5.13;;;15.40;74.40;;;;;;10449897;28;20159;-63
2022/11/13 16:37:55;;;;;;;29.63;7.30;;;15.50;75.00;;;;;;10428326;28;22015;-63
2022/11/13 16:42:56;;;;;;;34.95;6.57;;;15.70;74.00;;;;;;10438899;28;20776;-66
2022/11/13 16:47:57;;;;;;;20.98;6.95;;;15.60;74.50;;;;;;10447146;28;20115;-63
2022/11/13 16:52:58;;;;;;;21.35;8.23;;;15.60;74.40;;;;;;10447501;28;20025;-66
2022/11/13 16:57:59;;;;;;;33.60;10.02;;;15.80;81.00;;;;;;10445491;28;20064;-67
2022/11/13 17:02:59;;;;;;;25.48;8.80;;;16.10;77.80;;;;;;10444759;28;20678;-64
2022/11/13 17:08:00;;;;;;;30.65;9.23;;;16.10;77.10;;;;;;10445641;28;20072;-66
2022/11/13 17:13:01;;;;;;;24.05;8.70;;;16.00;76.60;;;;;;10446255;28;20057;-65
2022/11/13 17:18:01;;;;;;;33.63;9.60;;;16.00;76.60;;;;;;10444952;28;20060;-65
2022/11/13 17:23:02;;;;;;;31.70;9.40;;;15.90;75.50;;;;;;10426618;28;20112;-64
2022/11/13 17:28:03;;;;;;;23.30;7.78;;;15.80;76.40;;;;;;10446085;28;20099;-63
2022/11/13 17:33:04;;;;;;;28.23;7.95;;;15.70;76.90;;;;;;10443788;28;20701;-63
2022/11/13 17:38:04;;;;;;;20.90;6.65;;;15.70;77.10;;;;;;10441859;28;20127;-63
2022/11/13 17:43:06;;;;;;;19.20;7.82;;;15.70;77.10;;;;;;10444506;28;20053;-66
2022/11/13 17:48:07;;;;;;;26.38;8.43;;;15.70;77.20;;;;;;10443822;28;20028;-64
2022/11/13 17:53:08;;;;;;;21.77;6.85;;;15.70;77.20;;;;;;10443770;28;20108;-66
2022/11/13 17:58:08;;;;;;;18.95;7.50;;;15.60;77.10;;;;;;10451741;28;20064;-63
2022/11/13 18:03:09;;;;;;;20.58;7.28;;;15.60;77.10;;;;;;10451250;28;20079;-65
2022/11/13 18:08:11;;;;;;;18.90;6.75;;;15.60;77.20;;;;;;10484966;28;20087;-64
2022/11/13 18:13:11;;;;;;;22.00;6.25;;;15.60;77.30;;;;;;10450083;28;20024;-65
2022/11/13 18:18:12;;;;;;;14.30;5.80;;;15.50;77.10;;;;;;10450749;28;20119;-66
2022/11/13 18:23:12;;;;;;;19.63;5.72;;;15.60;77.20;;;;;;10448779;28;20104;-66
2022/11/13 18:28:13;;;;;;;18.08;6.32;;;15.60;77.10;;;;;;10450913;28;20104;-66
2022/11/13 18:33:14;;;;;;;17.55;5.07;;;15.60;77.10;;;;;;10466781;28;20116;-64
2022/11/13 18:38:15;;;;;;;16.98;7.20;;;15.60;77.00;;;;;;10450723;28;20071;-65
2022/11/13 18:43:15;;;;;;;22.02;6.57;;;15.60;77.00;;;;;;10447421;28;20096;-64
2022/11/13 18:48:16;;;;;;;19.92;6.55;;;15.60;76.90;;;;;;10464050;28;20111;-66
2022/11/13 18:53:16;;;;;;;15.02;6.03;;;15.60;77.00;;;;;;10433619;28;20052;-65
2022/11/13 18:58:17;;;;;;;18.92;5.65;;;15.50;77.00;;;;;;10449648;28;20108;-67
2022/11/13 19:03:18;;;;;;;11.27;5.20;;;15.50;77.10;;;;;;10450838;28;20117;-66
2022/11/13 19:08:19;;;;;;;9.65;4.82;;;15.50;77.00;;;;;;10448291;28;20017;-68
2022/11/13 19:13:19;;;;;;;9.18;4.75;;;15.50;77.10;;;;;;10448788;28;20167;-67
2022/11/13 19:18:20;;;;;;;10.52;4.72;;;15.50;77.00;;;;;;10449275;28;20039;-66
2022/11/13 19:23:21;;;;;;;14.70;5.15;;;15.50;76.90;;;;;;10449844;28;20666;-64
2022/11/13 19:28:21;;;;;;;12.63;4.68;;;15.40;76.80;;;;;;10449021;28;20048;-67
2022/11/13 19:33:24;;;;;;;9.07;4.43;;;15.50;76.80;;;;;;10449686;28;20132;-65
2022/11/13 19:38:26;;;;;;;10.13;4.88;;;15.50;76.30;;;;;;10448024;28;20106;-63
2022/11/13 19:43:29;;;;;;;11.60;5.03;;;15.50;76.30;;;;;;10445917;28;20449;-63
2022/11/13 19:48:31;;;;;;;9.77;5.32;;;15.60;76.60;;;;;;10449985;28;20108;-64
2022/11/13 19:53:31;;;;;;;13.32;3.95;;;15.60;76.40;;;;;;10431499;28;20028;-64
2022/11/13 19:58:32;;;;;;;17.92;5.75;;;15.60;76.50;;;;;;10448997;28;20043;-63
2022/11/13 20:03:33;;;;;;;8.88;4.80;;;15.60;76.50;;;;;;10447271;28;20109;-63
2022/11/13 20:08:34;;;;;;;11.55;4.45;;;15.60;76.60;;;;;;10448646;28;20104;-63
2022/11/13 20:13:37;;;;;;;9.93;3.90;;;15.60;76.60;;;;;;10447754;28;20084;-64
2022/11/13 20:18:39;;;;;;;7.95;5.55;;;15.60;76.60;;;;;;10446758;28;20124;-63
2022/11/13 20:23:40;;;;;;;7.63;4.65;;;15.60;76.50;;;;;;10446679;28;20025;-63
2022/11/13 20:28:41;;;;;;;9.15;3.88;;;15.60;76.50;;;;;;10430316;28;20138;-65
2022/11/13 20:33:42;;;;;;;12.60;4.40;;;15.60;76.40;;;;;;10447086;28;20049;-64
2022/11/13 20:38:48;;;;;;;12.18;4.63;;;15.60;76.30;;;;;;10443767;28;20439;-63
2022/11/13 20:43:50;;;;;;;11.85;4.68;;;15.60;76.00;;;;;;10446476;28;20025;-68
2022/11/13 20:48:51;;;;;;;21.23;5.60;;;15.50;75.10;;;;;;10446152;28;20430;-67
2022/11/13 20:53:52;;;;;;;6.28;4.32;;;15.50;73.90;;;;;;10446309;28;20115;-68
2022/11/13 20:58:53;;;;;;;5.70;3.50;;;15.50;73.00;;;;;;10442100;28;20025;-68
2022/11/13 21:03:54;;;;;;;7.05;3.65;;;15.50;72.20;;;;;;10443573;28;20115;-67
2022/11/13 21:08:56;;;;;;;6.25;3.60;;;15.40;73.00;;;;;;10426779;28;20021;-67
2022/11/13 21:13:58;;;;;;;6.97;4.45;;;15.40;73.90;;;;;;10443696;28;20028;-68
2022/11/13 21:18:59;;;;;;;4.22;2.83;;;15.40;72.30;;;;;;10442991;28;20052;-67
2022/11/13 21:23:59;;;;;;;6.78;3.78;;;15.40;71.50;;;;;;10426989;28;20028;-67
2022/11/13 21:29:00;;;;;;;4.75;3.33;;;15.40;70.80;;;;;;10445663;28;20103;-67
2022/11/13 21:34:01;;;;;;;4.75;3.75;;;15.40;71.30;;;;;;10436607;28;20053;-66
2022/11/13 21:39:01;;;;;;;5.95;3.00;;;15.30;72.30;;;;;;10453487;28;20068;-65
2022/11/13 21:44:05;;;;;;;7.20;3.35;;;15.30;73.00;;;;;;10454223;28;20512;-66
2022/11/13 21:49:10;;;;;;;5.25;2.80;;;15.30;71.40;;;;;;10436804;28;20017;-66
2022/11/13 21:54:10;;;;;;;4.70;3.00;;;15.40;70.30;;;;;;10452900;28;20764;-66
2022/11/13 21:59:11;;;;;;;7.63;4.10;;;15.40;69.80;;;;;;10453793;28;20116;-65
2022/11/13 22:04:12;;;;;;;4.95;2.60;;;15.40;70.20;;;;;;10453734;28;20803;-65
2022/11/13 22:09:22;;;;;;;6.63;3.63;;;15.30;71.20;;;;;;10452221;28;20094;-64
2022/11/13 22:14:22;;;;;;;5.07;2.53;;;15.30;70.70;;;;;;10452008;28;20487;-66
2022/11/13 22:19:23;;;;;;;4.95;2.70;;;15.30;69.60;;;;;;10453689;28;20093;-66
2022/11/13 22:24:24;;;;;;;4.60;2.75;;;15.30;68.90;;;;;;10434160;28;20060;-67
2022/11/13 22:29:24;;;;;;;5.28;3.35;;;15.30;68.50;;;;;;10435230;28;20048;-65
2022/11/13 22:34:25;;;;;;;4.03;3.33;;;15.30;69.30;;;;;;10484515;28;20091;-65
2022/11/13 22:39:25;;;;;;;4.45;3.08;;;15.30;70.20;;;;;;10451138;28;20200;-68
2022/11/13 22:44:26;;;;;;;3.75;2.70;;;15.30;68.90;;;;;;10451823;28;20099;-67
2022/11/13 22:49:27;;;;;;;4.93;3.03;;;15.30;68.50;;;;;;10434043;28;20072;-68
2022/11/13 22:54:27;;;;;;;4.70;2.92;;;15.30;67.90;;;;;;10450016;28;20656;-67
2022/11/13 22:59:28;;;;;;;3.38;2.70;;;15.30;68.50;;;;;;10451796;28;20025;-70
2022/11/13 23:04:29;;;;;;;3.63;2.72;;;15.20;69.70;;;;;;10449850;28;20025;-68
2022/11/13 23:09:29;;;;;;;3.95;2.08;;;15.20;68.70;;;;;;10449971;28;20052;-68
2022/11/13 23:14:30;;;;;;;5.53;2.80;;;15.30;67.90;;;;;;10449635;28;20060;-68
2022/11/13 23:19:31;;;;;;;3.80;2.42;;;15.30;67.60;;;;;;10450611;28;20124;-67
2022/11/13 23:24:32;;;;;;;4.65;3.38;;;15.30;67.50;;;;;;10432302;28;20064;-68
2022/11/13 23:29:32;;;;;;;4.18;3.03;;;15.20;68.40;;;;;;10450575;28;20021;-68
2022/11/13 23:34:33;;;;;;;5.35;2.50;;;15.20;68.70;;;;;;10449934;28;20087;-68
2022/11/13 23:39:34;;;;;;;5.05;2.70;;;15.20;67.70;;;;;;10431971;28;20071;-68
2022/11/13 23:44:34;;;;;;;3.50;2.45;;;15.20;67.10;;;;;;10447755;28;20427;-67
2022/11/13 23:49:35;;;;;;;3.50;2.35;;;15.20;66.70;;;;;;10432066;28;20107;-68
2022/11/13 23:54:36;;;;;;;4.45;2.83;;;15.20;67.30;;;;;;10446868;28;20456;-67
2022/11/13 23:59:36;;;;;;;4.50;2.53;;;15.10;68.40;;;;;;10447970;28;20056;-67
